createdAt,value
2023-02-22T00:00:59.842Z,28.58
2023-02-22T00:03:28.984Z,28.83
2023-02-22T00:05:59.691Z,23.67
2023-02-22T00:08:31.934Z,23.60
2023-02-22T00:11:04.669Z,31.13
2023-02-22T00:13:31.819Z,34.72
2023-02-22T00:16:02.691Z,28.35
2023-02-22T00:18:30.100Z,25.17
2023-02-22T00:21:01.623Z,22.33
2023-02-22T00:23:30.689Z,24.58
2023-02-22T00:25:59.732Z,22.70
2023-02-22T00:28:27.449Z,28.15
2023-02-22T00:30:55.673Z,27.33
2023-02-22T00:33:23.302Z,23.33
2023-02-22T00:35:50.381Z,22.23
2023-02-22T00:38:19.039Z,27.85
2023-02-22T00:40:46.151Z,25.75
2023-02-22T00:43:14.027Z,31.35
2023-02-22T00:45:41.306Z,25.13
2023-02-22T00:48:09.735Z,23.40
2023-02-22T00:50:37.350Z,19.00
2023-02-22T00:53:05.375Z,23.83
2023-02-22T00:55:35.504Z,21.30
2023-02-22T00:58:04.405Z,22.85
2023-02-22T01:00:37.054Z,25.80
2023-02-22T01:03:05.996Z,23.25
2023-02-22T01:05:33.567Z,25.75
2023-02-22T01:08:02.312Z,24.20
2023-02-22T01:10:31.184Z,26.65
2023-02-22T01:13:00.263Z,29.80
2023-02-22T01:15:30.739Z,26.95
2023-02-22T01:17:59.679Z,25.33
2023-02-22T01:20:29.420Z,21.20
2023-02-22T01:22:59.315Z,26.35
2023-02-22T01:25:31.031Z,24.08
2023-02-22T01:28:00.683Z,25.95
2023-02-22T01:30:34.556Z,24.58
2023-02-22T01:33:03.584Z,25.58
2023-02-22T01:35:32.861Z,26.52
2023-02-22T01:37:59.969Z,20.25
2023-02-22T01:40:32.973Z,29.13
2023-02-22T01:43:03.292Z,25.60
2023-02-22T01:45:30.467Z,26.08
2023-02-22T01:48:09.156Z,22.27
2023-02-22T01:50:55.998Z,23.65
2023-02-22T01:53:41.531Z,24.10
2023-02-22T01:56:09.668Z,23.02
2023-02-22T01:58:41.159Z,21.83
2023-02-22T02:01:09.380Z,22.40
2023-02-22T02:03:39.928Z,30.48
2023-02-22T02:06:12.712Z,24.77
2023-02-22T02:09:05.035Z,27.83
2023-02-22T02:11:32.520Z,24.67
2023-02-22T02:14:00.168Z,26.45
2023-02-22T02:16:39.024Z,21.23
2023-02-22T02:19:18.169Z,26.73
2023-02-22T02:22:16.782Z,23.77
2023-02-22T02:25:05.116Z,21.02
2023-02-22T02:27:50.777Z,23.98
2023-02-22T02:30:39.086Z,21.08
2023-02-22T02:33:34.755Z,22.38
2023-02-22T02:36:05.382Z,22.00
2023-02-22T02:38:36.218Z,26.02
2023-02-22T02:41:21.691Z,28.58
2023-02-22T02:43:59.473Z,27.42
2023-02-22T02:46:39.218Z,27.38
2023-02-22T02:49:12.310Z,24.60
2023-02-22T02:51:44.313Z,27.25
2023-02-22T02:54:13.447Z,24.40
2023-02-22T02:56:42.781Z,22.00
2023-02-22T02:59:29.966Z,25.25
2023-02-22T03:02:12.781Z,24.15
2023-02-22T03:04:39.745Z,27.38
2023-02-22T03:07:38.494Z,23.70
2023-02-22T03:10:27.100Z,24.02
2023-02-22T03:12:54.084Z,29.95
2023-02-22T03:15:45.933Z,28.17
2023-02-22T03:18:26.136Z,30.90
2023-02-22T03:21:01.059Z,30.77
2023-02-22T03:23:35.418Z,28.83
2023-02-22T03:26:12.178Z,27.60
2023-02-22T03:28:41.927Z,30.25
2023-02-22T03:31:18.075Z,34.97
2023-02-22T03:33:54.406Z,25.20
2023-02-22T03:36:34.606Z,29.70
2023-02-22T03:39:04.253Z,30.50
2023-02-22T03:41:34.617Z,28.65
2023-02-22T03:44:12.201Z,28.42
2023-02-22T03:46:41.006Z,30.00
2023-02-22T03:49:45.609Z,29.63
2023-02-22T03:52:13.080Z,34.42
2023-02-22T03:54:40.783Z,28.90
2023-02-22T03:57:17.623Z,36.80
2023-02-22T03:59:46.005Z,40.15
2023-02-22T04:02:13.041Z,28.23
2023-02-22T04:04:40.155Z,41.22
2023-02-22T04:07:07.226Z,34.75
2023-02-22T04:09:34.404Z,32.17
2023-02-22T04:12:01.518Z,31.10
2023-02-22T04:14:29.557Z,30.98
2023-02-22T04:16:58.298Z,35.65
2023-02-22T04:19:25.437Z,36.22
2023-02-22T04:21:53.159Z,32.53
2023-02-22T04:24:20.218Z,32.97
2023-02-22T04:26:47.340Z,32.90
2023-02-22T04:29:14.417Z,33.95
2023-02-22T04:31:41.610Z,38.40
2023-02-22T04:34:08.843Z,37.05
2023-02-22T04:36:35.952Z,32.97
2023-02-22T04:39:03.590Z,37.15
2023-02-22T04:41:31.523Z,33.45
2023-02-22T04:43:58.719Z,40.28
2023-02-22T04:46:26.167Z,45.03
2023-02-22T04:48:54.344Z,38.45
2023-02-22T04:51:21.462Z,37.08
2023-02-22T04:53:48.551Z,37.65
2023-02-22T04:56:18.534Z,42.20
2023-02-22T04:58:45.602Z,36.75
2023-02-22T05:01:12.711Z,36.13
2023-02-22T05:03:40.048Z,32.78
2023-02-22T05:06:07.580Z,43.45
2023-02-22T05:08:34.957Z,42.38
2023-02-22T05:11:02.055Z,49.78
2023-02-22T05:13:29.172Z,43.80
2023-02-22T05:15:58.662Z,39.75
2023-02-22T05:18:26.357Z,42.85
2023-02-22T05:20:54.050Z,39.60
2023-02-22T05:23:21.129Z,43.55
2023-02-22T05:25:48.364Z,46.67
2023-02-22T05:28:17.272Z,42.55
2023-02-22T05:30:44.480Z,42.67
2023-02-22T05:33:11.749Z,53.65
2023-02-22T05:35:38.884Z,45.92
2023-02-22T05:38:06.582Z,49.95
2023-02-22T05:40:33.965Z,43.13
2023-02-22T05:43:02.213Z,52.33
2023-02-22T05:45:29.865Z,56.20
2023-02-22T05:47:58.142Z,53.30
2023-02-22T05:50:26.267Z,50.88
2023-02-22T05:52:54.192Z,58.17
2023-02-22T05:55:23.580Z,55.60
2023-02-22T05:57:52.396Z,52.95
2023-02-22T06:00:26.515Z,52.35
2023-02-22T06:03:03.403Z,56.63
2023-02-22T06:05:31.110Z,48.70
2023-02-22T06:07:59.049Z,49.28
2023-02-22T06:10:28.207Z,42.70
2023-02-22T06:12:57.384Z,52.72
2023-02-22T06:15:26.657Z,46.70
2023-02-22T06:17:56.304Z,48.90
2023-02-22T06:20:26.420Z,49.63
2023-02-22T06:22:55.364Z,54.15
2023-02-22T06:25:28.244Z,45.65
2023-02-22T06:27:56.190Z,54.00
2023-02-22T06:30:24.953Z,49.22
2023-02-22T06:32:52.046Z,56.53
2023-02-22T06:35:19.371Z,58.90
2023-02-22T06:37:46.944Z,56.28
2023-02-22T06:40:15.691Z,51.47
2023-02-22T06:42:43.232Z,48.70
2023-02-22T06:45:11.041Z,55.90
2023-02-22T06:47:42.205Z,62.10
2023-02-22T06:50:21.016Z,59.53
2023-02-22T06:52:48.264Z,62.88
2023-02-22T06:55:24.934Z,59.78
2023-02-22T06:57:52.483Z,52.65
2023-02-22T07:00:21.600Z,58.50
2023-02-22T07:02:48.937Z,53.20
2023-02-22T07:05:18.746Z,48.05
2023-02-22T07:07:47.251Z,51.63
2023-02-22T07:10:29.697Z,52.30
2023-02-22T07:12:57.540Z,56.45
2023-02-22T07:15:28.101Z,56.00
2023-02-22T07:17:56.443Z,45.80
2023-02-22T07:20:25.031Z,51.00
2023-02-22T07:22:52.723Z,59.45
2023-02-22T07:25:20.654Z,60.92
2023-02-22T07:27:48.165Z,55.45
2023-02-22T07:30:18.623Z,64.63
2023-02-22T07:32:47.096Z,72.50
2023-02-22T07:35:18.191Z,63.47
2023-02-22T07:37:45.934Z,56.50
2023-02-22T07:40:13.038Z,55.95
2023-02-22T07:42:56.397Z,68.25
2023-02-22T07:45:26.598Z,66.70
2023-02-22T07:47:53.945Z,49.45
2023-02-22T07:50:23.437Z,56.30
2023-02-22T07:52:53.191Z,57.67
2023-02-22T07:55:22.871Z,58.28
2023-02-22T07:57:51.799Z,61.30
2023-02-22T08:00:41.121Z,54.92
2023-02-22T08:03:10.262Z,54.10
2023-02-22T08:05:39.216Z,54.78
2023-02-22T08:08:07.694Z,66.85
2023-02-22T08:10:35.718Z,52.10
2023-02-22T08:13:04.453Z,60.47
2023-02-22T08:15:35.007Z,59.05
2023-02-22T08:18:03.905Z,61.85
2023-02-22T08:20:31.927Z,55.17
2023-02-22T08:22:59.061Z,52.13
2023-02-22T08:25:28.724Z,51.10
2023-02-22T08:28:01.275Z,54.38
2023-02-22T08:30:30.769Z,54.50
2023-02-22T08:32:58.585Z,55.92
2023-02-22T08:35:27.778Z,51.38
2023-02-22T08:37:59.220Z,52.03
2023-02-22T08:40:30.964Z,52.00
2023-02-22T08:42:58.450Z,47.22
2023-02-22T08:45:26.704Z,45.90
2023-02-22T08:47:54.112Z,49.58
2023-02-22T08:50:28.151Z,42.55
2023-02-22T08:53:00.791Z,43.47
2023-02-22T08:55:32.582Z,50.15
2023-02-22T08:58:02.832Z,44.97
2023-02-22T09:00:32.980Z,38.20
2023-02-22T09:03:04.384Z,39.53
2023-02-22T09:05:31.999Z,43.55
2023-02-22T09:08:00.448Z,37.53
2023-02-22T09:10:31.679Z,37.90
2023-02-22T09:13:00.845Z,34.72
2023-02-22T09:15:28.653Z,40.90
2023-02-22T09:17:56.516Z,38.83
2023-02-22T09:20:25.231Z,35.25
2023-02-22T09:22:53.383Z,35.50
2023-02-22T09:25:20.990Z,33.72
2023-02-22T09:27:50.157Z,37.72
2023-02-22T09:30:24.625Z,38.22
2023-02-22T09:32:58.038Z,39.72
2023-02-22T09:35:27.826Z,29.70
2023-02-22T09:38:00.070Z,28.33
2023-02-22T09:40:30.832Z,29.17
2023-02-22T09:43:00.946Z,30.15
2023-02-22T09:45:36.760Z,31.30
2023-02-22T09:48:20.844Z,30.67
2023-02-22T09:50:53.039Z,29.88
2023-02-22T09:53:30.878Z,31.75
2023-02-22T09:56:06.967Z,26.13
2023-02-22T09:58:47.472Z,29.65
2023-02-22T10:01:39.397Z,32.22
2023-02-22T10:04:12.478Z,33.17
2023-02-22T10:06:44.145Z,33.88
2023-02-22T10:09:11.539Z,36.72
2023-02-22T10:11:58.168Z,36.42
2023-02-22T10:14:33.275Z,33.90
2023-02-22T10:17:32.692Z,32.45
2023-02-22T10:20:18.850Z,38.80
2023-02-22T10:23:04.514Z,31.40
2023-02-22T10:25:36.350Z,33.20
2023-02-22T10:28:24.320Z,40.70
2023-02-22T10:31:02.224Z,32.58
2023-02-22T10:33:33.734Z,29.38
2023-02-22T10:36:00.925Z,35.13
2023-02-22T10:38:34.652Z,35.78
2023-02-22T10:43:38.771Z,35.20
2023-02-22T10:46:08.351Z,34.35
2023-02-22T10:48:38.411Z,35.20
2023-02-22T10:51:08.583Z,37.30
2023-02-22T10:53:38.355Z,35.00
2023-02-22T10:56:21.493Z,31.77
2023-02-22T10:59:02.322Z,38.92
2023-02-22T11:01:32.937Z,38.05
2023-02-22T11:04:13.286Z,30.55
2023-02-22T11:06:46.925Z,30.75
2023-02-22T11:09:22.547Z,30.75
2023-02-22T11:12:06.900Z,35.88
2023-02-22T11:14:34.061Z,27.92
2023-02-22T11:17:06.439Z,30.38
2023-02-22T11:19:34.301Z,33.20
2023-02-22T11:22:14.966Z,34.85
2023-02-22T11:24:57.650Z,29.15
2023-02-22T11:27:31.645Z,28.33
2023-02-22T11:30:12.009Z,30.40
2023-02-22T11:32:54.636Z,26.55
2023-02-22T11:35:53.686Z,25.80
2023-02-22T11:38:24.255Z,29.98
2023-02-22T11:41:18.256Z,26.38
2023-02-22T11:43:48.475Z,29.10
2023-02-22T11:46:30.241Z,29.20
2023-02-22T11:49:02.427Z,33.72
2023-02-22T11:52:09.671Z,36.67
2023-02-22T11:54:58.745Z,28.55
2023-02-22T11:57:38.943Z,30.95
2023-02-22T12:00:24.635Z,30.27
2023-02-22T12:03:33.425Z,24.27
2023-02-22T12:06:24.725Z,29.92
2023-02-22T12:09:00.021Z,29.85
2023-02-22T12:11:45.091Z,25.65
2023-02-22T12:14:36.605Z,28.88
2023-02-22T12:17:26.559Z,27.55
2023-02-22T12:20:01.245Z,29.00
2023-02-22T12:22:39.205Z,34.92
2023-02-22T12:25:22.745Z,28.83
2023-02-22T12:27:58.782Z,27.48
2023-02-22T12:30:41.072Z,27.15
2023-02-22T12:33:25.164Z,27.27
2023-02-22T12:38:44.381Z,27.73
2023-02-22T12:41:31.603Z,27.65
2023-02-22T12:44:06.499Z,30.65
2023-02-22T12:46:43.635Z,28.65
2023-02-22T12:49:42.725Z,37.35
2023-02-22T12:52:42.214Z,33.22
2023-02-22T12:55:31.646Z,33.47
2023-02-22T12:58:10.110Z,32.88
2023-02-22T13:00:57.770Z,30.08
2023-02-22T13:03:24.879Z,37.38
2023-02-22T13:06:01.279Z,25.88
2023-02-22T13:08:37.683Z,27.13
2023-02-22T13:11:19.690Z,32.78
2023-02-22T13:13:56.627Z,27.92
2023-02-22T13:16:52.504Z,34.53
2023-02-22T13:19:26.691Z,29.20
2023-02-22T13:22:32.661Z,24.98
2023-02-22T13:24:59.732Z,32.03
2023-02-22T13:27:38.765Z,32.10
2023-02-22T13:30:13.582Z,32.67
2023-02-22T13:32:51.466Z,28.27
2023-02-22T13:35:50.507Z,28.50
2023-02-22T13:38:17.540Z,30.02
2023-02-22T13:41:23.213Z,34.40
2023-02-22T13:44:09.034Z,32.03
2023-02-22T13:46:54.899Z,27.60
2023-02-22T13:49:39.797Z,29.88
2023-02-22T13:52:12.140Z,33.17
2023-02-22T13:54:46.871Z,31.15
2023-02-22T13:57:51.469Z,30.52
2023-02-22T14:03:02.125Z,29.58
2023-02-22T14:05:49.681Z,30.40
2023-02-22T14:08:19.707Z,30.50
2023-02-22T14:10:52.928Z,26.10
2023-02-22T14:13:27.834Z,34.80
2023-02-22T14:15:57.940Z,29.13
2023-02-22T14:18:30.313Z,40.47
2023-02-22T14:21:13.112Z,28.05
2023-02-22T14:23:45.328Z,31.90
2023-02-22T14:26:21.220Z,27.70
2023-02-22T14:29:09.603Z,27.52
2023-02-22T14:31:51.575Z,27.35
2023-02-22T14:34:39.917Z,30.52
2023-02-22T14:37:33.037Z,29.13
2023-02-22T14:40:12.810Z,27.42
2023-02-22T14:42:48.601Z,24.35
2023-02-22T14:45:28.545Z,23.02
2023-02-22T14:48:11.623Z,24.90
2023-02-22T14:50:41.763Z,26.08
2023-02-22T14:53:44.181Z,25.75
2023-02-22T14:56:26.782Z,30.00
2023-02-22T14:58:58.715Z,21.17
2023-02-22T15:01:44.352Z,26.60
2023-02-22T15:04:28.140Z,28.50
2023-02-22T15:06:59.947Z,24.70
2023-02-22T15:09:34.859Z,22.05
2023-02-22T15:12:05.010Z,19.73
2023-02-22T15:14:44.583Z,26.00
2023-02-22T15:17:22.804Z,23.83
2023-02-22T15:19:50.620Z,22.02
2023-02-22T15:22:25.177Z,21.45
2023-02-22T15:25:01.650Z,23.20
2023-02-22T15:27:29.408Z,20.90
2023-02-22T15:29:59.751Z,24.17
2023-02-22T15:32:49.870Z,18.55
2023-02-22T15:35:30.738Z,23.77
2023-02-22T15:38:04.071Z,20.50
2023-02-22T15:40:33.233Z,20.15
2023-02-22T15:43:08.848Z,24.02
2023-02-22T15:45:44.997Z,21.40
2023-02-22T15:48:12.617Z,23.13
2023-02-22T15:50:39.735Z,22.85
2023-02-22T15:53:29.417Z,26.42
2023-02-22T15:56:01.036Z,25.90
2023-02-22T15:58:30.034Z,22.60
2023-02-22T16:01:03.737Z,22.40
2023-02-22T16:06:35.692Z,28.92
2023-02-22T16:09:28.901Z,27.50
2023-02-22T16:12:22.954Z,23.85
2023-02-22T16:14:52.286Z,20.55
2023-02-22T16:17:26.697Z,26.67
2023-02-22T16:19:54.018Z,26.55
2023-02-22T16:22:35.828Z,33.25
2023-02-22T16:25:17.926Z,31.80
2023-02-22T16:28:12.804Z,25.33
2023-02-22T16:30:40.260Z,26.17
2023-02-22T16:33:13.777Z,21.52
2023-02-22T16:35:43.275Z,23.10
2023-02-22T16:38:17.199Z,23.80
2023-02-22T16:40:54.570Z,21.95
2023-02-22T16:43:24.285Z,25.60
2023-02-22T16:45:53.055Z,23.33
2023-02-22T16:48:23.119Z,24.33
2023-02-22T16:50:52.078Z,23.80
2023-02-22T16:53:21.908Z,24.55
2023-02-22T16:55:50.733Z,26.92
2023-02-22T16:58:19.162Z,29.27
2023-02-22T17:00:46.268Z,27.98
2023-02-22T17:03:18.327Z,30.65
2023-02-22T17:05:45.454Z,28.95
2023-02-22T17:08:13.054Z,33.70
2023-02-22T17:10:40.134Z,35.08
2023-02-22T17:13:21.869Z,29.65
2023-02-22T17:15:50.195Z,31.45
2023-02-22T17:18:22.701Z,31.85
2023-02-22T17:20:51.681Z,30.77
2023-02-22T17:23:19.763Z,36.28
2023-02-22T17:25:54.091Z,35.75
2023-02-22T17:28:23.665Z,29.40
2023-02-22T17:30:52.269Z,32.83
2023-02-22T17:33:27.958Z,34.13
2023-02-22T17:35:57.913Z,33.17
2023-02-22T17:38:28.969Z,32.42
2023-02-22T17:40:59.206Z,39.38
2023-02-22T17:43:28.159Z,35.58
2023-02-22T17:45:55.698Z,36.50
2023-02-22T17:48:24.561Z,48.55
2023-02-22T17:50:52.531Z,44.58
2023-02-22T17:53:24.582Z,46.65
2023-02-22T17:55:51.965Z,46.40
2023-02-22T17:58:19.248Z,51.45
2023-02-22T18:00:49.137Z,46.22
2023-02-22T18:03:25.075Z,47.13
2023-02-22T18:05:56.215Z,42.13
2023-02-22T18:08:25.539Z,48.70
2023-02-22T18:10:56.841Z,49.95
2023-02-22T18:13:27.884Z,57.53
2023-02-22T18:16:00.875Z,51.13
2023-02-22T18:18:28.695Z,52.28
2023-02-22T18:20:59.694Z,53.63
2023-02-22T18:23:30.475Z,50.75
2023-02-22T18:26:10.575Z,52.60
2023-02-22T18:28:39.193Z,53.17
2023-02-22T18:31:08.648Z,56.42
2023-02-22T18:33:35.811Z,51.92
2023-02-22T18:36:03.039Z,50.00
2023-02-22T18:38:30.134Z,54.08
2023-02-22T18:41:06.211Z,52.60
2023-02-22T18:43:36.260Z,55.58
2023-02-22T18:46:09.590Z,51.03
2023-02-22T18:48:37.754Z,54.53
2023-02-22T18:51:10.340Z,51.20
2023-02-22T18:53:38.852Z,56.10
2023-02-22T18:56:08.398Z,66.00
2023-02-22T18:58:36.245Z,68.85
2023-02-22T19:01:03.817Z,61.15
2023-02-22T19:03:32.768Z,74.18
2023-02-22T19:06:04.007Z,71.28
2023-02-22T19:08:32.732Z,71.80
2023-02-22T19:11:05.517Z,66.07
2023-02-22T19:13:33.872Z,71.95
2023-02-22T19:16:07.167Z,71.65
2023-02-22T19:18:34.380Z,70.38
2023-02-22T19:21:03.594Z,72.07
2023-02-22T19:23:34.526Z,76.35
2023-02-22T19:26:09.284Z,67.05
2023-02-22T19:31:33.754Z,67.20
2023-02-22T19:34:02.015Z,65.72
2023-02-22T19:36:29.320Z,72.15
2023-02-22T19:39:01.583Z,71.65
2023-02-22T19:41:29.622Z,75.38
2023-02-22T19:43:58.553Z,72.80
2023-02-22T19:46:26.860Z,81.80
2023-02-22T19:48:55.354Z,69.00
2023-02-22T19:51:25.756Z,76.70
2023-02-22T19:53:56.758Z,69.93
2023-02-22T19:56:28.222Z,75.63
2023-02-22T19:58:58.301Z,75.75
2023-02-22T20:01:29.072Z,81.20
2023-02-22T20:03:59.899Z,82.00
2023-02-22T20:06:34.995Z,70.05
2023-02-22T20:09:02.704Z,74.07
2023-02-22T20:11:29.950Z,79.65
2023-02-22T20:13:58.026Z,71.43
2023-02-22T20:16:25.261Z,74.85
2023-02-22T20:18:54.424Z,81.60
2023-02-22T20:21:28.156Z,80.65
2023-02-22T20:23:59.258Z,72.93
2023-02-22T20:26:29.407Z,67.43
2023-02-22T20:28:58.037Z,76.28
2023-02-22T20:31:25.287Z,80.72
2023-02-22T20:33:54.201Z,68.95
2023-02-22T20:36:24.989Z,68.57
2023-02-22T20:38:54.779Z,68.35
2023-02-22T20:41:33.071Z,73.53
2023-02-22T20:44:02.292Z,68.97
2023-02-22T20:46:36.109Z,69.90
2023-02-22T20:49:07.454Z,63.28
2023-02-22T20:51:35.370Z,74.90
2023-02-22T20:54:02.941Z,65.43
2023-02-22T20:56:32.722Z,73.75
2023-02-22T20:59:02.329Z,62.45
2023-02-22T21:01:29.977Z,62.17
2023-02-22T21:04:05.011Z,70.57
2023-02-22T21:06:35.313Z,61.95
2023-02-22T21:09:07.123Z,68.47
2023-02-22T21:11:34.940Z,71.57
2023-02-22T21:14:02.960Z,65.88
2023-02-22T21:16:35.910Z,62.63
2023-02-22T21:19:05.990Z,73.45
2023-02-22T21:21:34.658Z,58.28
2023-02-22T21:24:01.901Z,62.88
2023-02-22T21:26:34.415Z,63.28
2023-02-22T21:29:05.052Z,68.50
2023-02-22T21:31:34.025Z,64.13
2023-02-22T21:34:02.026Z,61.58
2023-02-22T21:36:29.142Z,61.35
2023-02-22T21:38:59.913Z,65.32
2023-02-22T21:41:31.046Z,55.08
2023-02-22T21:43:59.254Z,56.35
2023-02-22T21:46:29.140Z,56.92
2023-02-22T21:48:58.701Z,62.17
2023-02-22T21:51:31.728Z,57.75
2023-02-22T21:54:04.172Z,57.93
2023-02-22T21:56:34.981Z,53.22
2023-02-22T21:59:05.132Z,59.08
2023-02-22T22:01:38.820Z,59.20
2023-02-22T22:06:34.684Z,62.63
2023-02-22T22:09:04.893Z,48.85
2023-02-22T22:11:31.990Z,58.75
2023-02-22T22:14:00.324Z,54.25
2023-02-22T22:16:33.027Z,52.25
2023-02-22T22:19:00.111Z,55.13
2023-02-22T22:21:28.681Z,55.13
2023-02-22T22:23:57.052Z,52.70
2023-02-22T22:26:25.424Z,57.97
2023-02-22T22:28:56.966Z,61.47
2023-02-22T22:31:26.315Z,54.05
2023-02-22T22:33:57.129Z,60.10
2023-02-22T22:36:28.452Z,57.10
2023-02-22T22:38:57.847Z,52.40
2023-02-22T22:41:28.131Z,55.08
2023-02-22T22:43:56.702Z,59.30
2023-02-22T22:46:23.919Z,51.20
2023-02-22T22:48:51.068Z,60.90
2023-02-22T22:51:20.671Z,52.88
2023-02-22T22:53:49.599Z,53.28
2023-02-22T22:56:19.221Z,55.25
2023-02-22T22:58:51.968Z,54.67
2023-02-22T23:01:27.972Z,62.03
2023-02-22T23:04:01.322Z,61.55
2023-02-22T23:09:11.394Z,59.08
2023-02-22T23:11:46.540Z,53.58
2023-02-22T23:14:19.528Z,60.90
2023-02-22T23:16:48.396Z,47.28
2023-02-22T23:19:16.563Z,58.35
2023-02-22T23:21:43.964Z,57.40
2023-02-22T23:24:17.678Z,54.05
2023-02-22T23:29:20.866Z,46.15
2023-02-22T23:31:49.683Z,50.33
2023-02-22T23:34:18.712Z,51.75
2023-02-22T23:36:46.777Z,55.95
2023-02-22T23:39:15.604Z,54.60
2023-02-22T23:41:42.746Z,50.72
2023-02-22T23:44:17.947Z,58.60
2023-02-22T23:46:48.248Z,58.67
2023-02-22T23:49:20.586Z,60.90
2023-02-22T23:51:48.538Z,63.83
2023-02-22T23:54:21.674Z,52.08
2023-02-22T23:56:58.114Z,53.90
2023-02-22T23:59:26.907Z,50.45
